createdAt,value
2022-11-05T00:00:56.847Z,19.8
2022-11-05T00:01:59.465Z,19.81
2022-11-05T00:03:13.403Z,19.81
2022-11-05T00:04:30.808Z,19.81
2022-11-05T00:05:34.643Z,19.8
2022-11-05T00:06:47.120Z,19.78
2022-11-05T00:07:50.648Z,19.8
2022-11-05T00:09:03.175Z,19.78
2022-11-05T00:10:16.625Z,19.8
2022-11-05T00:11:19.339Z,19.78
2022-11-05T00:12:32.642Z,19.76
2022-11-05T00:13:45.195Z,19.78
2022-11-05T00:14:48.643Z,19.76
2022-11-05T00:16:01.154Z,19.77
2022-11-05T00:17:34.649Z,19.74
2022-11-05T00:18:17.360Z,19.74
2022-11-05T00:19:29.856Z,19.76
2022-11-05T00:20:43.151Z,19.74
2022-11-05T00:21:55.678Z,19.74
2022-11-05T00:22:59.142Z,19.74
2022-11-05T00:24:11.747Z,19.76
2022-11-05T00:25:25.166Z,19.74
2022-11-05T00:26:27.794Z,19.73
2022-11-05T00:27:41.154Z,19.76
2022-11-05T00:28:53.717Z,19.73
2022-11-05T00:29:57.177Z,19.73
2022-11-05T00:31:09.684Z,19.73
2022-11-05T00:32:23.367Z,19.73
2022-11-05T00:33:26.040Z,19.73
2022-11-05T00:34:39.131Z,19.7
2022-11-05T00:35:52.541Z,19.7
2022-11-05T00:36:55.758Z,19.71
2022-11-05T00:38:08.257Z,19.7
2022-11-05T00:39:21.775Z,19.68
2022-11-05T00:40:24.369Z,19.67
2022-11-05T00:41:37.689Z,19.67
2022-11-05T00:42:50.194Z,19.67
2022-11-05T00:44:34.141Z,19.67
2022-11-05T00:45:06.972Z,19.67
2022-11-05T00:46:19.472Z,19.68
2022-11-05T00:47:32.684Z,19.7
2022-11-05T00:48:55.083Z,19.7
2022-11-05T00:49:48.783Z,19.7
2022-11-05T00:51:01.224Z,19.7
2022-11-05T00:52:14.658Z,19.71
2022-11-05T00:53:17.205Z,19.73
2022-11-05T00:54:30.662Z,19.71
2022-11-05T00:55:33.287Z,19.73
2022-11-05T00:56:46.651Z,19.73
2022-11-05T00:57:59.176Z,19.71
2022-11-05T00:59:12.660Z,19.7
2022-11-05T01:00:15.229Z,19.7
2022-11-05T01:01:28.885Z,19.68
2022-11-05T01:02:41.759Z,19.68
2022-11-05T01:03:50.401Z,19.67
2022-11-05T01:04:54.258Z,19.68
2022-11-05T01:06:07.665Z,19.67
2022-11-05T01:07:20.150Z,19.66
2022-11-05T01:08:23.664Z,19.66
2022-11-05T01:09:36.142Z,19.64
2022-11-05T01:10:49.654Z,19.64
2022-11-05T01:11:52.228Z,19.64
2022-11-05T01:13:08.834Z,19.62
2022-11-05T01:14:15.388Z,19.63
2022-11-05T01:15:28.654Z,19.64
2022-11-05T01:16:31.241Z,19.64
2022-11-05T01:17:44.632Z,19.62
2022-11-05T01:18:57.163Z,19.6
2022-11-05T01:20:10.624Z,19.62
2022-11-05T01:21:13.210Z,19.59
2022-11-05T01:22:26.634Z,19.6
2022-11-05T01:23:39.191Z,19.6
2022-11-05T01:24:42.683Z,19.6
2022-11-05T01:25:55.209Z,19.59
2022-11-05T01:27:08.661Z,19.57
2022-11-05T01:28:11.256Z,19.57
2022-11-05T01:29:24.678Z,19.57
2022-11-05T01:30:37.277Z,19.56
2022-11-05T01:31:40.665Z,19.56
2022-11-05T01:32:53.267Z,19.57
2022-11-05T01:34:06.682Z,19.59
2022-11-05T01:35:09.338Z,19.57
2022-11-05T01:36:22.680Z,19.53
2022-11-05T01:37:35.283Z,19.56
2022-11-05T01:38:38.660Z,19.55
2022-11-05T01:39:51.191Z,19.56
2022-11-05T01:41:04.641Z,19.55
2022-11-05T01:42:07.242Z,19.53
2022-11-05T01:43:20.650Z,19.53
2022-11-05T01:44:33.175Z,19.53
2022-11-05T01:45:36.681Z,19.55
2022-11-05T01:46:49.268Z,19.52
2022-11-05T01:48:02.679Z,19.52
2022-11-05T01:49:05.275Z,19.52
2022-11-05T01:50:18.713Z,19.49
2022-11-05T01:51:31.244Z,19.52
2022-11-05T01:52:44.672Z,19.52
2022-11-05T01:53:47.261Z,19.52
2022-11-05T01:55:00.784Z,19.52
2022-11-05T01:56:13.319Z,19.5
2022-11-05T01:57:16.790Z,19.47
2022-11-05T01:58:29.300Z,19.5
2022-11-05T01:59:42.652Z,19.49
2022-11-05T02:00:45.262Z,19.47
2022-11-05T02:01:58.780Z,19.49
2022-11-05T02:03:11.676Z,19.5
2022-11-05T02:04:15.190Z,19.5
2022-11-05T02:05:27.715Z,19.47
2022-11-05T02:06:41.159Z,19.49
2022-11-05T02:07:43.982Z,19.52
2022-11-05T02:08:57.155Z,19.5
2022-11-05T02:10:09.672Z,19.47
2022-11-05T02:11:23.176Z,19.47
2022-11-05T02:12:25.752Z,19.49
2022-11-05T02:13:39.201Z,19.46
2022-11-05T02:14:51.735Z,19.46
2022-11-05T02:15:55.192Z,19.47
2022-11-05T02:17:08.100Z,19.46
2022-11-05T02:18:21.689Z,19.45
2022-11-05T02:19:24.292Z,19.45
2022-11-05T02:20:37.669Z,19.45
2022-11-05T02:21:50.240Z,19.46
2022-11-05T02:22:54.164Z,19.47
2022-11-05T02:24:06.742Z,19.45
2022-11-05T02:25:20.193Z,19.46
2022-11-05T02:26:22.808Z,19.45
2022-11-05T02:27:36.187Z,19.43
2022-11-05T02:28:48.731Z,19.45
2022-11-05T02:29:52.211Z,19.45
2022-11-05T02:31:04.740Z,19.45
2022-11-05T02:32:18.174Z,19.45
2022-11-05T02:33:20.799Z,19.43
2022-11-05T02:34:34.228Z,19.42
2022-11-05T02:35:46.758Z,19.42
2022-11-05T02:36:50.220Z,19.42
2022-11-05T02:38:02.744Z,19.43
2022-11-05T02:39:16.171Z,19.45
2022-11-05T02:40:28.742Z,19.42
2022-11-05T02:41:32.261Z,19.43
2022-11-05T02:42:45.036Z,19.43
2022-11-05T02:43:58.175Z,19.4
2022-11-05T02:45:00.765Z,19.4
2022-11-05T02:46:14.197Z,19.4
2022-11-05T02:47:26.740Z,19.4
2022-11-05T02:48:30.209Z,19.4
2022-11-05T02:49:42.723Z,19.4
2022-11-05T02:50:56.184Z,19.4
2022-11-05T02:51:59.023Z,19.4
2022-11-05T02:53:12.595Z,19.4
2022-11-05T02:54:25.620Z,19.39
2022-11-05T02:55:29.345Z,19.38
2022-11-05T02:56:41.864Z,19.4
2022-11-05T02:57:55.186Z,19.38
2022-11-05T02:58:57.809Z,19.39
2022-11-05T03:00:11.188Z,19.38
2022-11-05T03:01:23.880Z,19.39
2022-11-05T03:02:37.396Z,19.38
2022-11-05T03:03:40.112Z,19.38
2022-11-05T03:04:53.677Z,19.35
2022-11-05T03:06:06.225Z,19.36
2022-11-05T03:07:09.713Z,19.36
2022-11-05T03:08:22.235Z,19.36
2022-11-05T03:09:35.707Z,19.35
2022-11-05T03:10:38.286Z,19.35
2022-11-05T03:11:51.719Z,19.35
2022-11-05T03:13:04.350Z,19.35
2022-11-05T03:14:07.677Z,19.33
2022-11-05T03:15:20.232Z,19.33
2022-11-05T03:16:33.792Z,19.32
2022-11-05T03:17:36.462Z,19.33
2022-11-05T03:18:49.715Z,19.3
2022-11-05T03:20:02.244Z,19.35
2022-11-05T03:21:15.720Z,19.35
2022-11-05T03:22:18.334Z,19.33
2022-11-05T03:23:31.720Z,19.3
2022-11-05T03:24:44.295Z,19.33
2022-11-05T03:25:47.715Z,19.33
2022-11-05T03:27:00.238Z,19.32
2022-11-05T03:28:13.672Z,19.32
2022-11-05T03:29:16.370Z,19.32
2022-11-05T03:30:29.696Z,19.33
2022-11-05T03:31:42.423Z,19.33
2022-11-05T03:32:45.717Z,19.32
2022-11-05T03:33:58.238Z,19.32
2022-11-05T03:35:11.698Z,19.33
2022-11-05T03:36:24.403Z,19.32
2022-11-05T03:37:27.725Z,19.3
2022-11-05T03:38:40.285Z,19.32
2022-11-05T03:39:53.735Z,19.32
2022-11-05T03:40:56.347Z,19.33
2022-11-05T03:42:09.736Z,19.29
2022-11-05T03:43:22.280Z,19.33
2022-11-05T03:44:25.731Z,19.32
2022-11-05T03:45:38.080Z,19.33
2022-11-05T03:46:51.213Z,19.3
2022-11-05T03:47:53.872Z,19.33
2022-11-05T03:49:07.227Z,19.32
2022-11-05T03:50:19.772Z,19.32
2022-11-05T03:51:23.228Z,19.3
2022-11-05T03:52:35.750Z,19.29
2022-11-05T03:53:49.227Z,19.32
2022-11-05T03:54:51.833Z,19.3
2022-11-05T03:56:05.216Z,19.29
2022-11-05T03:57:17.782Z,19.3
2022-11-05T03:58:31.316Z,19.3
2022-11-05T03:59:33.904Z,19.3
2022-11-05T04:00:47.205Z,19.27
2022-11-05T04:01:59.833Z,19.3
2022-11-05T04:03:03.787Z,19.3
2022-11-05T04:04:16.405Z,19.3
2022-11-05T04:05:29.720Z,19.29
2022-11-05T04:06:32.369Z,19.29
2022-11-05T04:07:45.812Z,19.29
2022-11-05T04:08:58.408Z,19.29
2022-11-05T04:10:01.718Z,19.27
2022-11-05T04:11:14.262Z,19.3
2022-11-05T04:12:28.844Z,19.27
2022-11-05T04:13:31.429Z,19.27
2022-11-05T04:15:04.690Z,19.27
2022-11-05T04:15:57.377Z,19.27
2022-11-05T04:17:00.125Z,19.3
2022-11-05T04:18:13.196Z,19.29
2022-11-05T04:19:26.311Z,19.29
2022-11-05T04:20:39.733Z,19.27
2022-11-05T04:21:42.417Z,19.32
2022-11-05T04:22:55.699Z,19.3
2022-11-05T04:24:08.553Z,19.27
2022-11-05T04:25:12.235Z,19.29
2022-11-05T04:26:24.787Z,19.3
2022-11-05T04:27:38.268Z,19.26
2022-11-05T04:28:40.869Z,19.27
2022-11-05T04:30:14.238Z,19.29
2022-11-05T04:31:06.897Z,19.27
2022-11-05T04:32:09.507Z,19.29
2022-11-05T04:33:23.255Z,19.29
2022-11-05T04:34:35.789Z,19.29
2022-11-05T04:35:49.230Z,19.27
2022-11-05T04:36:51.871Z,19.29
2022-11-05T04:38:05.198Z,19.27
2022-11-05T04:39:17.861Z,19.26
2022-11-05T04:40:21.254Z,19.27
2022-11-05T04:41:33.725Z,19.29
2022-11-05T04:42:47.213Z,19.26
2022-11-05T04:43:49.818Z,19.26
2022-11-05T04:45:03.259Z,19.27
2022-11-05T04:46:15.804Z,19.23
2022-11-05T04:47:19.253Z,19.25
2022-11-05T04:48:31.874Z,19.23
2022-11-05T04:49:45.213Z,19.22
2022-11-05T04:50:57.768Z,19.23
2022-11-05T04:52:01.234Z,19.22
2022-11-05T04:53:14.091Z,19.22
2022-11-05T04:54:27.733Z,19.25
2022-11-05T04:55:30.332Z,19.25
2022-11-05T04:56:43.779Z,19.22
2022-11-05T04:57:56.296Z,19.23
2022-11-05T04:58:59.761Z,19.2
2022-11-05T05:00:12.377Z,19.2
2022-11-05T05:01:25.821Z,19.2
2022-11-05T05:02:28.647Z,19.19
2022-11-05T05:03:42.228Z,19.2
2022-11-05T05:04:54.760Z,19.19
2022-11-05T05:06:03.371Z,19.19
2022-11-05T05:07:06.458Z,19.16
2022-11-05T05:08:19.715Z,19.17
2022-11-05T05:09:32.298Z,19.16
2022-11-05T05:10:35.725Z,19.17
2022-11-05T05:11:48.229Z,19.16
2022-11-05T05:13:01.747Z,19.16
2022-11-05T05:14:04.908Z,19.13
2022-11-05T05:15:18.248Z,19.13
2022-11-05T05:16:30.768Z,19.15
2022-11-05T05:17:44.251Z,19.13
2022-11-05T05:18:46.854Z,19.12
2022-11-05T05:20:00.237Z,19.12
2022-11-05T05:21:12.783Z,19.11
2022-11-05T05:22:16.247Z,19.11
2022-11-05T05:23:28.817Z,19.12
2022-11-05T05:24:42.231Z,19.11
2022-11-05T05:25:44.840Z,19.09
2022-11-05T05:26:58.233Z,19.09
2022-11-05T05:28:10.780Z,19.09
2022-11-05T05:29:24.239Z,19.08
2022-11-05T05:30:26.854Z,19.09
2022-11-05T05:31:40.263Z,19.09
2022-11-05T05:32:52.810Z,19.09
2022-11-05T05:33:56.230Z,19.06
2022-11-05T05:35:08.782Z,19.08
2022-11-05T05:36:22.241Z,19.09
2022-11-05T05:37:24.844Z,19.08
2022-11-05T05:38:38.225Z,19.09
2022-11-05T05:39:50.771Z,19.08
2022-11-05T05:41:04.233Z,19.08
2022-11-05T05:42:06.860Z,19.08
2022-11-05T05:43:20.258Z,19.05
2022-11-05T05:44:32.793Z,19.08
2022-11-05T05:45:36.243Z,19.08
2022-11-05T05:46:48.784Z,19.09
2022-11-05T05:48:02.224Z,19.09
2022-11-05T05:49:09.597Z,19.08
2022-11-05T05:50:16.240Z,19.08
2022-11-05T05:51:28.773Z,19.06
2022-11-05T05:52:42.232Z,19.08
2022-11-05T05:53:44.991Z,19.11
2022-11-05T05:54:58.251Z,19.08
2022-11-05T05:56:10.803Z,19.08
2022-11-05T05:57:14.244Z,19.08
2022-11-05T05:58:26.789Z,19.08
2022-11-05T05:59:40.248Z,19.06
2022-11-05T06:00:52.811Z,19.05
2022-11-05T06:01:56.319Z,19.08
2022-11-05T06:03:09.378Z,19.08
2022-11-05T06:04:23.241Z,19.06
2022-11-05T06:05:25.850Z,19.06
2022-11-05T06:06:39.245Z,19.06
2022-11-05T06:08:01.769Z,19.08
2022-11-05T06:08:55.240Z,19.05
2022-11-05T06:10:07.787Z,19.06
2022-11-05T06:11:21.249Z,19.06
2022-11-05T06:12:23.860Z,19.05
2022-11-05T06:13:37.285Z,19.06
2022-11-05T06:14:49.955Z,19.05
2022-11-05T06:15:53.258Z,19.06
2022-11-05T06:17:05.916Z,19.04
2022-11-05T06:18:19.266Z,19.06
2022-11-05T06:19:31.824Z,19.05
2022-11-05T06:20:35.229Z,19.05
2022-11-05T06:21:47.805Z,19.04
2022-11-05T06:23:01.267Z,19.05
2022-11-05T06:24:03.897Z,19.05
2022-11-05T06:25:17.264Z,19.05
2022-11-05T06:26:29.798Z,19.05
2022-11-05T06:27:33.334Z,19.04
2022-11-05T06:28:45.883Z,19.02
2022-11-05T06:29:59.271Z,19.05
2022-11-05T06:31:11.814Z,19.05
2022-11-05T06:32:15.267Z,19.05
2022-11-05T06:33:27.836Z,19.04
2022-11-05T06:34:41.267Z,19.01
2022-11-05T06:35:43.941Z,19.04
2022-11-05T06:36:57.250Z,19.04
2022-11-05T06:38:09.854Z,19.04
2022-11-05T06:39:13.277Z,18.99
2022-11-05T06:40:26.153Z,19.02
2022-11-05T06:42:03.942Z,19.02
2022-11-05T06:42:49.847Z,19.02
2022-11-05T06:43:52.492Z,19.04
2022-11-05T06:45:06.252Z,19.04
2022-11-05T06:46:18.793Z,19.02
2022-11-05T06:47:42.251Z,19.05
2022-11-05T06:48:34.925Z,19.02
2022-11-05T06:49:48.279Z,19.04
2022-11-05T06:51:00.828Z,19.05
2022-11-05T06:52:04.284Z,19.06
2022-11-05T06:53:17.120Z,19.04
2022-11-05T06:54:30.255Z,19.06
2022-11-05T06:55:33.003Z,19.04
2022-11-05T06:56:46.282Z,19.05
2022-11-05T06:57:58.840Z,19.02
2022-11-05T06:59:02.247Z,19.02
2022-11-05T07:00:14.813Z,19.04
2022-11-05T07:01:28.382Z,19.04
2022-11-05T07:02:31.124Z,19.02
2022-11-05T07:03:44.767Z,19.02
2022-11-05T07:04:57.316Z,19.02
2022-11-05T07:06:10.780Z,19.02
2022-11-05T07:07:13.386Z,18.99
2022-11-05T07:08:26.782Z,18.99
2022-11-05T07:09:39.348Z,19.01
2022-11-05T07:10:42.790Z,18.99
2022-11-05T07:11:55.440Z,18.99
2022-11-05T07:13:09.204Z,18.99
2022-11-05T07:14:12.061Z,18.98
2022-11-05T07:15:25.258Z,19.01
2022-11-05T07:16:37.823Z,18.98
2022-11-05T07:17:51.269Z,18.98
2022-11-05T07:18:53.920Z,18.96
2022-11-05T07:20:07.371Z,18.96
2022-11-05T07:21:19.933Z,18.96
2022-11-05T07:22:23.296Z,18.99
2022-11-05T07:23:35.864Z,18.96
2022-11-05T07:24:49.259Z,19.02
2022-11-05T07:25:51.832Z,19.11
2022-11-05T07:27:05.291Z,19.2
2022-11-05T07:28:17.725Z,19.32
2022-11-05T07:29:30.799Z,19.47
2022-11-05T07:30:33.265Z,19.55
2022-11-05T07:31:46.361Z,19.67
2022-11-05T07:32:58.731Z,19.77
2022-11-05T07:34:01.872Z,19.88
2022-11-05T07:35:14.332Z,19.98
2022-11-05T07:36:27.772Z,20.11
2022-11-05T07:37:30.219Z,20.18
2022-11-05T07:38:43.293Z,20.24
2022-11-05T07:39:55.629Z,20.31
2022-11-05T07:41:08.761Z,20.37
2022-11-05T07:42:11.166Z,20.44
2022-11-05T07:43:24.258Z,20.49
2022-11-05T07:44:36.556Z,20.54
2022-11-05T07:45:49.791Z,20.61
2022-11-05T07:46:52.194Z,20.62
2022-11-05T07:48:05.271Z,20.65
2022-11-05T07:49:17.602Z,20.72
2022-11-05T07:50:20.789Z,20.76
2022-11-05T07:51:33.115Z,20.75
2022-11-05T07:52:46.270Z,20.45
2022-11-05T07:53:48.759Z,19.87
2022-11-05T07:55:01.812Z,19.63
2022-11-05T07:56:14.405Z,19.4
2022-11-05T07:57:27.905Z,19.2
2022-11-05T07:58:30.404Z,19.02
2022-11-05T07:59:43.807Z,18.91
2022-11-05T08:00:56.384Z,18.88
2022-11-05T08:01:59.956Z,18.73
2022-11-05T08:03:13.202Z,18.65
2022-11-05T08:04:27.302Z,18.65
2022-11-05T08:05:29.871Z,18.71
2022-11-05T08:06:43.524Z,18.82
2022-11-05T08:07:56.022Z,18.91
2022-11-05T08:08:59.770Z,19.04
2022-11-05T08:10:12.194Z,19.15
2022-11-05T08:11:25.264Z,19.29
2022-11-05T08:12:37.664Z,19.42
2022-11-05T08:13:40.758Z,19.52
2022-11-05T08:14:53.136Z,19.64
2022-11-05T08:16:06.315Z,19.76
2022-11-05T08:17:08.780Z,19.84
2022-11-05T08:18:21.789Z,19.97
2022-11-05T08:19:44.061Z,20.07
2022-11-05T08:20:47.272Z,20.18
2022-11-05T08:21:49.789Z,20.27
2022-11-05T08:23:02.793Z,20.35
2022-11-05T08:24:15.134Z,20.45
2022-11-05T08:25:18.271Z,20.51
2022-11-05T08:26:31.211Z,20.61
2022-11-05T08:27:54.824Z,20.69
2022-11-05T08:28:47.318Z,20.73
2022-11-05T08:30:01.118Z,20.83
2022-11-05T08:31:13.777Z,20.89
2022-11-05T08:32:27.899Z,20.95
2022-11-05T08:33:30.542Z,21.0
2022-11-05T08:34:44.681Z,21.03
2022-11-05T08:35:47.724Z,21.1
2022-11-05T08:37:01.768Z,21.1
2022-11-05T08:38:44.570Z,21.17
2022-11-05T08:39:18.312Z,21.21
2022-11-05T08:40:31.062Z,21.27
2022-11-05T08:43:14.336Z,21.34
2022-11-05T08:43:17.849Z,21.37
2022-11-05T08:44:01.944Z,21.43
2022-11-05T08:45:15.139Z,21.5
2022-11-05T08:46:41.587Z,21.55
2022-11-05T08:47:38.776Z,21.6
2022-11-05T08:48:41.289Z,21.65
2022-11-05T08:50:24.981Z,21.72
2022-11-05T08:51:17.932Z,21.77
2022-11-05T08:52:10.911Z,21.8
2022-11-05T08:53:16.246Z,21.85
2022-11-05T08:54:29.782Z,21.9
2022-11-05T08:56:15.048Z,21.94
2022-11-05T08:56:50.231Z,21.97
2022-11-05T08:58:52.803Z,22.01
2022-11-05T08:59:06.458Z,22.05
2022-11-05T09:00:19.147Z,22.08
2022-11-05T09:01:33.443Z,22.13
2022-11-05T09:03:25.844Z,22.18
2022-11-05T09:04:00.039Z,22.21
2022-11-05T09:05:32.401Z,22.25
2022-11-05T09:06:18.558Z,22.29
2022-11-05T09:08:30.366Z,22.32
2022-11-05T09:08:33.805Z,22.39
2022-11-05T09:09:46.527Z,22.42
2022-11-05T09:10:51.368Z,22.49
2022-11-05T09:12:11.589Z,22.54
2022-11-05T09:13:26.368Z,22.59
2022-11-05T09:14:19.238Z,22.63
2022-11-05T09:15:21.578Z,22.66
2022-11-05T09:16:35.811Z,22.69
2022-11-05T09:18:07.678Z,22.7
2022-11-05T09:19:02.717Z,22.73
2022-11-05T09:20:45.215Z,22.73
2022-11-05T09:22:28.840Z,22.8
2022-11-05T09:22:33.181Z,22.79
2022-11-05T09:23:36.487Z,22.83
2022-11-05T09:25:30.253Z,22.9
2022-11-05T09:26:04.459Z,22.94
2022-11-05T09:27:17.263Z,22.97
2022-11-05T09:28:30.497Z,23.01
2022-11-05T09:29:44.986Z,23.05
2022-11-05T09:30:28.161Z,23.05
2022-11-05T09:31:43.214Z,23.11
2022-11-05T09:33:15.859Z,23.14
2022-11-05T09:33:59.952Z,23.15
2022-11-05T09:35:32.848Z,23.14
2022-11-05T09:36:27.375Z,23.18
2022-11-05T09:37:31.079Z,23.2
2022-11-05T09:38:55.106Z,23.2
2022-11-05T09:40:37.521Z,23.21
2022-11-05T09:41:22.486Z,23.2
2022-11-05T09:42:05.263Z,23.24
2022-11-05T09:43:48.174Z,23.27
2022-11-05T09:45:10.416Z,23.3
2022-11-05T09:46:23.644Z,23.3
2022-11-05T09:46:47.001Z,23.34
2022-11-05T09:48:09.212Z,23.39
2022-11-05T09:49:13.927Z,23.42
2022-11-05T09:50:16.188Z,23.47
2022-11-05T09:51:50.671Z,23.48
2022-11-05T09:53:03.498Z,23.49
2022-11-05T09:54:17.355Z,23.48
2022-11-05T09:55:00.181Z,23.52
2022-11-05T09:56:04.037Z,23.56
2022-11-05T09:57:18.528Z,23.58
2022-11-05T09:58:30.861Z,23.59
2022-11-05T09:59:35.939Z,23.64
2022-11-05T10:00:48.861Z,23.61
2022-11-05T10:02:02.078Z,23.65
2022-11-05T10:03:05.319Z,23.61
2022-11-05T10:04:28.902Z,23.64
2022-11-05T10:05:21.475Z,23.62
2022-11-05T10:06:35.655Z,23.64
2022-11-05T10:07:49.185Z,23.65
2022-11-05T10:09:43.162Z,23.64
2022-11-05T10:10:07.286Z,23.66
2022-11-05T10:11:09.900Z,23.65
2022-11-05T10:12:23.447Z,23.71
2022-11-05T10:13:55.537Z,23.71
2022-11-05T10:14:49.404Z,23.74
2022-11-05T10:16:01.948Z,23.79
2022-11-05T10:17:17.386Z,23.81
2022-11-05T10:18:11.452Z,23.81
2022-11-05T10:19:36.457Z,23.85
2022-11-05T10:20:31.443Z,23.86
2022-11-05T10:22:05.677Z,23.86
2022-11-05T10:22:49.774Z,23.89
2022-11-05T10:24:03.572Z,23.93
2022-11-05T10:25:17.439Z,23.93
2022-11-05T10:26:50.130Z,23.9
2022-11-05T10:27:44.776Z,23.92
2022-11-05T10:29:47.134Z,23.96
2022-11-05T10:30:10.460Z,23.95
2022-11-05T10:31:42.391Z,23.98
2022-11-05T10:32:16.696Z,24.06
2022-11-05T10:33:19.025Z,24.07
2022-11-05T10:34:32.063Z,24.13
2022-11-05T10:35:44.145Z,24.17
2022-11-05T10:36:47.401Z,24.19
2022-11-05T10:37:59.338Z,24.2
2022-11-05T10:39:11.859Z,24.16
2022-11-05T10:40:13.967Z,24.17
2022-11-05T10:41:26.848Z,24.17
2022-11-05T10:42:38.834Z,24.14
2022-11-05T10:43:51.822Z,24.14
2022-11-05T10:44:53.980Z,24.11
2022-11-05T10:46:06.867Z,24.09
2022-11-05T10:47:18.882Z,24.11
2022-11-05T10:48:31.942Z,24.11
2022-11-05T10:49:34.112Z,24.07
2022-11-05T10:50:46.871Z,24.1
2022-11-05T10:51:58.811Z,24.1
2022-11-05T10:53:11.673Z,24.1
2022-11-05T10:54:14.130Z,24.11
2022-11-05T10:55:27.390Z,24.1
2022-11-05T10:56:39.326Z,24.11
2022-11-05T10:57:42.404Z,24.11
2022-11-05T10:58:54.403Z,24.13
2022-11-05T11:00:07.389Z,24.14
2022-11-05T11:01:09.552Z,24.16
2022-11-05T11:02:22.444Z,24.22
2022-11-05T11:03:34.539Z,24.2
2022-11-05T11:04:47.386Z,24.22
2022-11-05T11:05:49.534Z,24.22
2022-11-05T11:07:02.360Z,24.25
2022-11-05T11:08:14.301Z,24.25
2022-11-05T11:09:27.355Z,24.2
2022-11-05T11:10:29.518Z,24.22
2022-11-05T11:11:42.366Z,24.19
2022-11-05T11:12:54.975Z,24.17
2022-11-05T11:13:57.874Z,24.19
2022-11-05T11:15:09.980Z,24.17
2022-11-05T11:16:22.840Z,24.17
2022-11-05T11:17:34.830Z,24.13
2022-11-05T11:18:40.192Z,24.13
2022-11-05T11:19:52.529Z,24.11
2022-11-05T11:21:05.350Z,24.11
2022-11-05T11:22:07.517Z,24.11
2022-11-05T11:23:20.372Z,24.11
2022-11-05T11:24:33.533Z,24.09
2022-11-05T11:25:36.870Z,24.07
2022-11-05T11:26:48.816Z,24.06
2022-11-05T11:28:01.973Z,24.02
2022-11-05T11:29:04.169Z,24.03
2022-11-05T11:30:17.034Z,23.99
2022-11-05T11:31:29.131Z,24.0
2022-11-05T11:32:41.851Z,23.98
2022-11-05T11:33:44.053Z,23.95
2022-11-05T11:34:56.897Z,23.95
2022-11-05T11:36:08.937Z,23.93
2022-11-05T11:37:21.893Z,23.92
2022-11-05T11:38:24.098Z,23.9
2022-11-05T11:39:36.880Z,23.86
2022-11-05T11:40:48.933Z,23.85
2022-11-05T11:41:51.886Z,23.83
2022-11-05T11:43:03.940Z,23.83
2022-11-05T11:44:16.898Z,23.81
2022-11-05T11:45:28.874Z,23.78
2022-11-05T11:46:31.844Z,23.78
2022-11-05T11:47:44.023Z,23.75
2022-11-05T11:48:56.871Z,23.75
2022-11-05T11:50:08.916Z,23.74
2022-11-05T11:51:11.876Z,23.74
2022-11-05T11:52:23.943Z,23.71
2022-11-05T11:53:36.869Z,23.71
2022-11-05T11:54:39.113Z,23.68
2022-11-05T11:56:01.870Z,23.71
2022-11-05T11:57:04.120Z,23.66
2022-11-05T11:58:16.875Z,23.64
2022-11-05T11:59:19.125Z,23.62
2022-11-05T12:00:31.935Z,23.64
2022-11-05T12:01:44.067Z,23.61
2022-11-05T12:03:01.570Z,23.59
2022-11-05T12:04:04.488Z,23.56
2022-11-05T12:05:07.380Z,23.54
2022-11-05T12:06:19.440Z,23.52
2022-11-05T12:07:32.374Z,23.51
2022-11-05T12:08:45.662Z,23.49
2022-11-05T12:09:49.371Z,23.51
2022-11-05T12:11:01.437Z,23.48
2022-11-05T12:12:14.411Z,23.47
2022-11-05T12:13:16.543Z,23.45
2022-11-05T12:14:29.429Z,23.42
2022-11-05T12:15:41.505Z,23.42
2022-11-05T12:16:44.392Z,23.41
2022-11-05T12:17:56.355Z,23.39
2022-11-05T12:19:09.393Z,23.34
2022-11-05T12:20:21.468Z,23.37
2022-11-05T12:21:47.730Z,23.34
2022-11-05T12:22:34.343Z,23.32
2022-11-05T12:23:46.490Z,23.34
2022-11-05T12:24:59.420Z,23.3
2022-11-05T12:26:11.469Z,23.28
2022-11-05T12:27:14.389Z,23.28
2022-11-05T12:28:26.433Z,23.27
2022-11-05T12:29:39.407Z,23.23
2022-11-05T12:30:41.581Z,23.23
2022-11-05T12:31:54.386Z,23.23
2022-11-05T12:33:06.563Z,23.21
2022-11-05T12:34:19.389Z,23.2
2022-11-05T12:35:21.568Z,23.17
2022-11-05T12:36:34.416Z,23.15
2022-11-05T12:37:46.526Z,23.11
2022-11-05T12:38:59.390Z,23.13
2022-11-05T12:40:01.651Z,23.11
2022-11-05T12:41:14.434Z,23.11
2022-11-05T12:42:26.529Z,23.07
2022-11-05T12:43:39.396Z,23.07
2022-11-05T12:44:41.593Z,23.07
2022-11-05T12:45:54.607Z,23.05
2022-11-05T12:47:06.806Z,23.03
2022-11-05T12:48:24.860Z,22.99
2022-11-05T12:49:19.976Z,22.99
2022-11-05T12:50:32.926Z,22.97
2022-11-05T12:51:45.021Z,22.97
2022-11-05T12:52:58.643Z,22.94
2022-11-05T12:54:00.824Z,22.93
2022-11-05T12:55:13.894Z,22.91
2022-11-05T12:56:26.029Z,22.91
2022-11-05T12:57:28.901Z,22.88
2022-11-05T12:58:41.117Z,22.88
2022-11-05T12:59:53.969Z,22.84
2022-11-05T13:01:06.326Z,22.83
2022-11-05T13:02:09.640Z,22.79
2022-11-05T13:03:21.868Z,22.8
2022-11-05T13:04:34.885Z,22.8
2022-11-05T13:05:37.126Z,22.77
2022-11-05T13:06:49.934Z,22.74
2022-11-05T13:08:02.021Z,22.72
2022-11-05T13:09:14.932Z,22.72
2022-11-05T13:10:17.210Z,22.7
2022-11-05T13:11:29.922Z,22.7
2022-11-05T13:12:42.089Z,22.67
2022-11-05T13:13:54.919Z,22.67
2022-11-05T13:14:57.200Z,22.64
2022-11-05T13:16:10.061Z,22.66
2022-11-05T13:17:22.197Z,22.63
2022-11-05T13:18:34.935Z,22.62
2022-11-05T13:19:37.220Z,22.6
2022-11-05T13:20:49.896Z,22.57
2022-11-05T13:22:02.041Z,22.62
2022-11-05T13:23:15.068Z,22.57
2022-11-05T13:24:17.302Z,22.57
2022-11-05T13:25:30.497Z,22.59
2022-11-05T13:26:42.647Z,22.57
2022-11-05T13:27:45.917Z,22.56
2022-11-05T13:28:58.064Z,22.54
2022-11-05T13:30:10.908Z,22.53
2022-11-05T13:31:23.064Z,22.52
2022-11-05T13:32:25.961Z,22.53
2022-11-05T13:33:38.115Z,22.52
2022-11-05T13:34:50.901Z,22.5
2022-11-05T13:35:53.174Z,22.49
2022-11-05T13:37:05.922Z,22.49
2022-11-05T13:38:18.079Z,22.5
2022-11-05T13:39:30.936Z,22.46
2022-11-05T13:40:33.205Z,22.45
2022-11-05T13:41:45.944Z,22.45
2022-11-05T13:42:58.072Z,22.42
2022-11-05T13:44:10.928Z,22.43
2022-11-05T13:45:13.221Z,22.41
2022-11-05T13:46:25.925Z,22.41
2022-11-05T13:47:38.061Z,22.39
2022-11-05T13:48:50.963Z,22.38
2022-11-05T13:49:53.204Z,22.36
2022-11-05T13:51:06.444Z,22.35
2022-11-05T13:52:18.601Z,22.32
2022-11-05T13:53:21.898Z,22.33
2022-11-05T13:54:34.072Z,22.32
2022-11-05T13:55:46.894Z,22.3
2022-11-05T13:56:59.087Z,22.26
2022-11-05T13:58:02.441Z,22.29
2022-11-05T13:59:14.620Z,22.26
2022-11-05T14:00:27.421Z,22.25
2022-11-05T14:01:29.922Z,22.28
2022-11-05T14:02:48.634Z,22.23
2022-11-05T14:03:51.056Z,22.22
2022-11-05T14:05:04.145Z,22.23
2022-11-05T14:06:16.271Z,22.23
2022-11-05T14:07:19.108Z,22.25
2022-11-05T14:08:31.293Z,22.23
2022-11-05T14:09:44.120Z,22.23
2022-11-05T14:10:56.243Z,22.21
2022-11-05T14:11:59.127Z,22.21
2022-11-05T14:13:11.545Z,22.18
2022-11-05T14:14:24.639Z,22.19
2022-11-05T14:15:36.834Z,22.18
2022-11-05T14:16:40.151Z,22.18
2022-11-05T14:17:52.341Z,22.15
2022-11-05T14:19:05.256Z,22.15
2022-11-05T14:20:07.749Z,22.15
2022-11-05T14:21:20.640Z,22.13
2022-11-05T14:22:32.929Z,22.11
2022-11-05T14:23:46.149Z,22.12
2022-11-05T14:24:48.499Z,22.11
2022-11-05T14:26:01.640Z,22.08
2022-11-05T14:27:13.783Z,22.06
2022-11-05T14:28:17.132Z,22.08
2022-11-05T14:29:29.386Z,22.06
2022-11-05T14:30:42.143Z,22.08
2022-11-05T14:32:08.978Z,22.03
2022-11-05T14:33:02.666Z,22.02
2022-11-05T14:34:04.935Z,22.02
2022-11-05T14:35:18.139Z,22.02
2022-11-05T14:36:30.354Z,22.03
2022-11-05T14:37:43.156Z,22.01
2022-11-05T14:38:45.420Z,21.99
2022-11-05T14:39:58.642Z,22.01
2022-11-05T14:41:10.798Z,21.98
2022-11-05T14:42:23.664Z,21.97
2022-11-05T14:43:25.945Z,21.98
2022-11-05T14:44:39.155Z,21.97
2022-11-05T14:45:51.296Z,21.95
2022-11-05T14:46:54.637Z,21.97
2022-11-05T14:48:06.778Z,21.95
2022-11-05T14:49:19.671Z,21.94
2022-11-05T14:50:31.881Z,21.94
2022-11-05T14:51:35.128Z,21.92
2022-11-05T14:52:47.268Z,21.94
2022-11-05T14:54:00.148Z,21.9
2022-11-05T14:55:02.406Z,21.92
2022-11-05T14:56:15.126Z,21.92
2022-11-05T14:57:27.335Z,21.9
2022-11-05T14:58:40.173Z,21.9
2022-11-05T14:59:42.529Z,21.9
2022-11-05T15:00:55.735Z,21.9
2022-11-05T15:02:08.252Z,21.9
2022-11-05T15:03:21.175Z,21.88